Time;durP1;ratioP1;P1;durP2;ratioP2;P2;SDS_P1;SDS_P2;PMS_P1;PMS_P2;Temp;Humidity;BMP_temperature;BMP_pressure;BME280_temperature;BME280_humidity;BME280_pressure;Samples;Min_cycle;Max_cycle;Signal;HPM_P1;HPM_P2
2021/01/18 00:01:37;;;;;;;16.30;9.55;;;4.00;1.00;;;;;;5136053;27;20015;-87
2021/01/18 00:04:03;;;;;;;18.90;10.23;;;4.20;1.00;;;;;;5134534;27;20389;-87
2021/01/18 00:06:29;;;;;;;13.27;9.40;;;4.10;1.00;;;;;;5130358;27;20039;-87
2021/01/18 00:08:54;;;;;;;20.05;10.73;;;4.10;1.00;;;;;;5134735;27;20023;-87
2021/01/18 00:11:22;;;;;;;19.17;10.23;;;4.60;1.00;;;;;;5134464;27;20031;-87
2021/01/18 00:13:50;;;;;;;17.65;9.98;;;4.50;1.00;;;;;;5134589;27;20028;-87
2021/01/18 00:16:18;;;;;;;15.43;10.10;;;4.30;1.00;;;;;;5134601;27;20023;-87
2021/01/18 00:18:44;;;;;;;18.75;10.30;;;4.20;1.00;;;;;;5135605;27;20058;-87
2021/01/18 00:21:09;;;;;;;17.42;11.35;;;4.20;1.00;;;;;;5125091;27;20053;-87
2021/01/18 00:23:40;;;;;;;18.90;11.82;;;4.00;1.00;;;;;;5134293;27;20034;-87
2021/01/18 00:26:07;;;;;;;16.40;11.98;;;3.90;1.00;;;;;;5134328;27;20035;-87
2021/01/18 00:28:33;;;;;;;22.30;12.82;;;3.50;1.00;;;;;;5135548;27;20039;-87
2021/01/18 00:31:00;;;;;;;20.13;13.13;;;3.50;1.00;;;;;;5134385;27;20038;-87
2021/01/18 00:33:26;;;;;;;24.00;12.60;;;3.80;1.00;;;;;;5133811;27;20030;-87
2021/01/18 00:35:51;;;;;;;17.08;10.70;;;3.40;1.00;;;;;;5132545;27;20023;-87
2021/01/18 00:38:17;;;;;;;15.80;11.32;;;3.90;1.00;;;;;;5115755;27;20023;-88
2021/01/18 00:40:43;;;;;;;28.63;15.13;;;3.70;1.00;;;;;;5113418;28;20048;-87
2021/01/18 00:43:08;;;;;;;27.98;14.90;;;3.50;1.00;;;;;;5114798;28;20034;-88
2021/01/18 00:45:34;;;;;;;28.73;14.90;;;3.70;1.00;;;;;;5113414;28;20028;-87
2021/01/18 00:48:00;;;;;;;20.90;12.43;;;3.20;1.00;;;;;;5113017;28;20031;-87
2021/01/18 00:50:28;;;;;;;18.90;11.18;;;3.60;1.00;;;;;;5114015;27;20023;-87
2021/01/18 00:52:55;;;;;;;14.90;10.57;;;3.20;1.00;;;;;;5114641;28;20484;-88
2021/01/18 00:55:23;;;;;;;15.55;11.13;;;3.40;1.00;;;;;;5113201;28;20115;-88
2021/01/18 00:57:49;;;;;;;16.08;9.60;;;3.30;1.00;;;;;;5114478;28;20544;-88
2021/01/18 01:00:26;;;;;;;17.38;10.18;;;3.80;1.00;;;;;;5113175;28;20030;-87
2021/01/18 01:02:53;;;;;;;17.70;10.45;;;3.20;1.00;;;;;;5114212;28;20020;-88
2021/01/18 01:05:24;;;;;;;17.15;9.10;;;3.30;1.00;;;;;;5114704;27;20051;-88
2021/01/18 01:07:51;;;;;;;14.70;9.27;;;3.80;1.00;;;;;;5134962;27;20475;-88
2021/01/18 01:10:22;;;;;;;19.38;10.23;;;3.80;1.00;;;;;;5134904;27;20058;-88
2021/01/18 01:13:02;;;;;;;14.70;9.25;;;3.70;1.00;;;;;;5134885;27;20023;-88
2021/01/18 01:15:28;;;;;;;17.40;9.35;;;3.20;1.00;;;;;;5133532;27;20030;-88
2021/01/18 01:17:54;;;;;;;18.23;9.27;;;3.60;1.00;;;;;;5133136;27;20019;-88
2021/01/18 01:20:21;;;;;;;18.98;9.18;;;3.10;1.00;;;;;;5124127;27;20023;-88
2021/01/18 01:22:47;;;;;;;16.15;10.02;;;3.60;1.00;;;;;;5114174;28;20024;-88
2021/01/18 01:25:15;;;;;;;17.60;9.57;;;3.10;1.00;;;;;;5112742;28;20031;-88
2021/01/18 01:27:41;;;;;;;19.20;9.02;;;3.20;1.00;;;;;;5114131;28;20103;-91
2021/01/18 01:30:09;;;;;;;15.10;8.80;;;3.20;1.00;;;;;;5113023;28;20032;-88
2021/01/18 01:32:42;;;;;;;15.90;8.73;;;3.10;1.00;;;;;;5113859;28;20015;-89
2021/01/18 01:35:10;;;;;;;16.95;9.10;;;3.40;1.00;;;;;;5117258;27;20035;-89
2021/01/18 01:37:36;;;;;;;16.67;9.68;;;3.20;1.00;;;;;;5112024;28;20115;-89
2021/01/18 01:40:03;;;;;;;16.98;8.95;;;3.30;1.00;;;;;;5112678;28;20048;-89
2021/01/18 01:42:28;;;;;;;16.48;9.38;;;3.20;1.00;;;;;;5112288;28;20126;-89
2021/01/18 01:44:55;;;;;;;30.05;14.82;;;3.20;1.00;;;;;;5112751;28;20055;-89
2021/01/18 01:47:29;;;;;;;22.50;12.20;;;3.40;1.00;;;;;;5112353;28;20477;-89
2021/01/18 01:49:55;;;;;;;17.15;9.77;;;2.90;1.00;;;;;;5113507;28;20031;-89
2021/01/18 01:52:23;;;;;;;15.30;9.00;;;2.90;1.00;;;;;;5112501;28;20024;-89
2021/01/18 01:54:58;;;;;;;16.33;8.77;;;2.90;1.00;;;;;;5113892;28;20039;-89
2021/01/18 01:57:25;;;;;;;15.65;8.25;;;3.10;1.00;;;;;;5096124;28;20027;-89
2021/01/18 01:59:52;;;;;;;14.55;7.88;;;2.70;1.00;;;;;;5091964;28;20122;-89
2021/01/18 02:02:18;;;;;;;12.55;7.22;;;3.20;1.00;;;;;;5092107;28;20016;-89
2021/01/18 02:04:47;;;;;;;13.85;7.93;;;2.90;1.00;;;;;;5106150;27;20027;-88
2021/01/18 02:07:28;;;;;;;14.45;8.63;;;2.60;1.00;;;;;;5133135;27;20023;-89
2021/01/18 02:09:55;;;;;;;11.93;7.78;;;3.00;1.00;;;;;;5133302;27;20080;-89
2021/01/18 02:12:22;;;;;;;13.60;8.27;;;3.30;1.00;;;;;;5134286;27;20062;-89
2021/01/18 02:15:42;;;;;;;13.27;7.68;;;2.50;1.00;;;;;;5132469;27;20500;-89
2021/01/18 02:18:10;;;;;;;15.57;8.95;;;2.60;1.00;;;;;;5074433;28;20023;-89
2021/01/18 02:21:09;;;;;;;19.90;10.30;;;2.50;1.00;;;;;;5072257;28;20482;-89
2021/01/18 02:24:10;;;;;;;21.55;11.43;;;2.50;1.00;;;;;;5054183;28;20028;-89
2021/01/18 02:27:13;;;;;;;21.55;10.15;;;2.40;1.00;;;;;;5053855;28;20059;-89
2021/01/18 02:30:10;;;;;;;22.88;12.57;;;2.40;1.00;;;;;;5053636;28;20032;-89
2021/01/18 02:33:12;;;;;;;17.98;9.43;;;2.50;1.00;;;;;;5053864;28;20040;-89
2021/01/18 02:35:52;;;;;;;16.95;9.38;;;2.60;1.00;;;;;;5070733;28;20032;-89
2021/01/18 02:38:26;;;;;;;17.38;8.82;;;2.60;1.00;;;;;;5054136;28;20146;-89
2021/01/18 02:40:59;;;;;;;15.77;8.38;;;2.70;1.00;;;;;;5054029;28;20051;-89
2021/01/18 02:43:35;;;;;;;15.00;8.98;;;2.50;1.00;;;;;;5070712;28;20032;-89
2021/01/18 02:46:03;;;;;;;15.77;8.88;;;2.50;1.00;;;;;;5051680;28;20461;-89
2021/01/18 02:48:30;;;;;;;14.98;8.18;;;2.70;1.00;;;;;;5056585;28;20032;-89
2021/01/18 02:51:02;;;;;;;13.45;8.30;;;3.20;1.00;;;;;;5056633;28;20028;-89
2021/01/18 02:53:28;;;;;;;15.48;9.02;;;3.10;1.00;;;;;;5132649;28;20023;-89
2021/01/18 02:55:53;;;;;;;13.82;8.95;;;3.10;1.00;;;;;;5133783;27;20383;-89
2021/01/18 02:58:22;;;;;;;18.23;10.43;;;2.60;1.00;;;;;;5133132;27;20031;-89
2021/01/18 03:01:03;;;;;;;11.60;8.32;;;2.80;1.00;;;;;;5133774;27;20055;-89
2021/01/18 03:03:48;;;;;;;16.65;8.75;;;3.00;1.00;;;;;;5134451;27;20087;-89
2021/01/18 03:06:20;;;;;;;13.65;9.20;;;3.30;1.00;;;;;;5136687;27;20027;-89
2021/01/18 03:09:07;;;;;;;15.43;9.35;;;2.90;1.00;;;;;;5136281;27;20023;-89
2021/01/18 03:11:37;;;;;;;19.05;10.02;;;3.30;1.00;;;;;;5136532;27;20773;-89
2021/01/18 03:14:23;;;;;;;15.02;9.35;;;2.90;1.00;;;;;;5136027;27;20028;-89
2021/01/18 03:16:50;;;;;;;19.08;9.98;;;2.80;1.00;;;;;;5136419;27;20023;-89
2021/01/18 03:19:19;;;;;;;14.38;9.10;;;2.70;1.00;;;;;;5126899;27;20015;-89
2021/01/18 03:21:46;;;;;;;14.57;9.82;;;2.60;1.00;;;;;;5115573;28;20034;-89
2021/01/18 03:24:11;;;;;;;16.83;9.05;;;3.10;1.00;;;;;;5116144;28;20034;-89
2021/01/18 03:26:37;;;;;;;15.60;9.57;;;2.50;1.00;;;;;;5115272;27;20027;-90
2021/01/18 03:29:03;;;;;;;15.88;10.23;;;3.10;1.00;;;;;;5115544;28;20499;-89
2021/01/18 03:31:28;;;;;;;17.83;10.90;;;3.00;1.00;;;;;;5115652;28;20057;-89
2021/01/18 03:33:54;;;;;;;19.38;11.07;;;3.20;1.00;;;;;;5130083;27;20019;-89
2021/01/18 03:36:19;;;;;;;18.70;11.98;;;3.20;1.00;;;;;;5135798;27;20515;-89
2021/01/18 03:38:45;;;;;;;19.85;12.35;;;3.50;1.00;;;;;;5135692;27;20380;-89
2021/01/18 03:41:12;;;;;;;17.67;11.25;;;3.20;1.00;;;;;;5135138;27;20035;-89
2021/01/18 03:43:38;;;;;;;17.48;11.30;;;3.20;1.00;;;;;;5135642;27;20031;-89
2021/01/18 03:46:06;;;;;;;16.52;11.18;;;3.40;1.00;;;;;;5135835;27;20114;-89
2021/01/18 03:48:31;;;;;;;19.92;11.70;;;2.80;1.00;;;;;;5123865;27;20036;-89
2021/01/18 03:50:57;;;;;;;16.35;10.77;;;2.90;1.00;;;;;;5116481;28;20088;-89
2021/01/18 03:53:23;;;;;;;19.73;10.32;;;2.90;1.00;;;;;;5115083;28;20055;-89
2021/01/18 03:55:48;;;;;;;19.38;11.40;;;3.30;1.00;;;;;;5114430;28;20054;-89
2021/01/18 03:58:14;;;;;;;19.20;10.90;;;3.00;1.00;;;;;;5115038;28;20034;-89
2021/01/18 04:00:40;;;;;;;21.00;11.48;;;3.00;1.00;;;;;;5116197;28;20023;-89
2021/01/18 04:03:06;;;;;;;17.83;10.98;;;3.10;1.00;;;;;;5116191;27;20397;-89
2021/01/18 04:05:31;;;;;;;21.05;11.68;;;3.20;1.00;;;;;;5115048;28;20028;-89
2021/01/18 04:07:57;;;;;;;19.13;11.20;;;3.50;1.00;;;;;;5114783;28;21339;-89
2021/01/18 04:10:28;;;;;;;18.42;11.15;;;3.10;1.00;;;;;;5114666;28;20472;-89
2021/01/18 04:12:55;;;;;;;20.25;10.70;;;3.10;1.00;;;;;;5114044;28;20027;-89
2021/01/18 04:15:22;;;;;;;15.95;9.88;;;3.10;1.00;;;;;;5114430;28;20056;-89
2021/01/18 04:17:54;;;;;;;17.67;11.43;;;3.10;1.00;;;;;;5123997;27;20061;-89
2021/01/18 04:20:20;;;;;;;15.27;9.95;;;3.30;1.00;;;;;;5114392;28;20024;-89
2021/01/18 04:22:47;;;;;;;15.95;9.77;;;3.50;1.00;;;;;;5114411;28;20119;-88
2021/01/18 04:25:15;;;;;;;15.13;9.35;;;3.20;1.00;;;;;;5115109;27;20026;-89
2021/01/18 04:27:52;;;;;;;17.40;9.90;;;4.00;1.00;;;;;;5114138;28;20554;-89
2021/01/18 04:30:19;;;;;;;14.50;9.50;;;3.40;1.00;;;;;;5114256;28;20438;-89
2021/01/18 04:32:52;;;;;;;18.02;10.88;;;3.30;1.00;;;;;;5127935;27;20031;-89
2021/01/18 04:35:18;;;;;;;15.77;10.27;;;3.50;1.00;;;;;;5134770;27;20027;-89
2021/01/18 04:37:44;;;;;;;17.17;10.13;;;3.40;1.00;;;;;;5134620;27;20072;-89
2021/01/18 04:40:10;;;;;;;17.08;9.43;;;3.90;1.00;;;;;;5134006;27;20438;-89
2021/01/18 04:42:37;;;;;;;15.63;9.30;;;3.40;1.00;;;;;;5134621;27;20027;-89
2021/01/18 04:45:03;;;;;;;14.90;9.35;;;3.40;1.00;;;;;;5134609;27;20023;-89
2021/01/18 04:47:31;;;;;;;12.43;9.13;;;3.50;1.00;;;;;;5121995;27;20040;-89
2021/01/18 04:49:57;;;;;;;17.60;11.18;;;3.70;1.00;;;;;;5113731;28;20095;-89
2021/01/18 04:52:53;;;;;;;16.15;10.13;;;4.00;1.00;;;;;;5113592;28;20484;-89
2021/01/18 04:55:26;;;;;;;14.88;10.00;;;4.00;1.00;;;;;;5113167;28;20027;-89
2021/01/18 04:58:18;;;;;;;15.65;9.48;;;3.90;1.00;;;;;;5113609;28;20035;-89
2021/01/18 05:00:49;;;;;;;13.20;9.88;;;3.60;1.00;;;;;;5116202;27;20027;-89
2021/01/18 05:03:17;;;;;;;14.45;10.18;;;3.50;1.00;;;;;;5135385;27;20046;-89
2021/01/18 05:05:52;;;;;;;15.90;9.43;;;4.10;1.00;;;;;;5133954;27;20020;-89
2021/01/18 05:08:35;;;;;;;14.38;9.15;;;3.40;1.00;;;;;;5135037;27;20437;-88
2021/01/18 05:11:01;;;;;;;15.02;10.30;;;3.40;1.00;;;;;;5133964;27;20159;-89
2021/01/18 05:13:30;;;;;;;15.63;9.93;;;3.40;1.00;;;;;;5135143;27;20515;-88
2021/01/18 05:15:59;;;;;;;16.70;11.15;;;3.60;1.00;;;;;;5131333;27;20030;-89
2021/01/18 05:18:32;;;;;;;21.67;11.00;;;3.40;1.00;;;;;;5133675;27;20499;-89
2021/01/18 05:21:02;;;;;;;17.15;10.52;;;3.70;1.00;;;;;;5133785;27;20156;-89
2021/01/18 05:23:28;;;;;;;16.70;10.68;;;3.60;1.00;;;;;;5132743;27;20084;-89
2021/01/18 05:26:21;;;;;;;15.73;10.30;;;3.60;1.00;;;;;;5133783;27;20019;-89
2021/01/18 05:28:51;;;;;;;14.15;10.32;;;3.40;1.00;;;;;;5133174;27;20557;-88
2021/01/18 05:31:26;;;;;;;20.40;11.27;;;3.30;1.00;;;;;;5131285;27;20492;-89
2021/01/18 05:33:55;;;;;;;20.52;12.38;;;3.40;1.00;;;;;;5133573;27;20034;-89
2021/01/18 05:36:35;;;;;;;18.63;12.85;;;3.20;1.00;;;;;;5133740;27;20508;-89
2021/01/18 05:39:32;;;;;;;21.27;12.07;;;3.70;1.00;;;;;;5132876;27;20070;-89
2021/01/18 05:41:58;;;;;;;18.33;12.90;;;3.90;1.00;;;;;;5120648;27;20034;-89
2021/01/18 05:44:35;;;;;;;20.42;12.65;;;3.40;1.00;;;;;;5131449;27;20015;-89
2021/01/18 05:47:02;;;;;;;17.55;11.25;;;4.00;1.00;;;;;;5126702;27;20484;-89
2021/01/18 05:49:45;;;;;;;20.63;11.73;;;4.00;1.00;;;;;;5133499;27;20027;-89
2021/01/18 05:52:26;;;;;;;23.20;13.88;;;3.50;1.00;;;;;;5132784;27;20019;-89
2021/01/18 05:55:25;;;;;;;52.70;33.35;;;4.00;1.00;;;;;;5133142;27;20050;-89
2021/01/18 05:57:55;;;;;;;42.20;29.92;;;3.30;1.00;;;;;;5093121;28;20023;-89
2021/01/18 06:00:35;;;;;;;29.35;18.80;;;3.20;1.00;;;;;;5111630;27;20481;-89
2021/01/18 06:03:06;;;;;;;32.47;20.92;;;3.20;1.00;;;;;;5132626;27;20030;-89
2021/01/18 06:05:35;;;;;;;42.08;27.38;;;3.60;1.00;;;;;;5133060;27;20079;-89
2021/01/18 06:08:11;;;;;;;29.90;18.75;;;3.30;1.00;;;;;;5132550;27;20156;-88
2021/01/18 06:10:37;;;;;;;32.88;22.70;;;3.20;1.00;;;;;;5134140;27;20023;-88
2021/01/18 06:13:03;;;;;;;27.65;15.95;;;3.20;1.00;;;;;;5132620;27;20024;-89
2021/01/18 06:15:29;;;;;;;26.35;14.77;;;3.60;1.00;;;;;;5130070;27;20023;-89
2021/01/18 06:17:57;;;;;;;30.73;18.55;;;3.50;1.00;;;;;;5132819;27;20024;-89
2021/01/18 06:20:26;;;;;;;29.88;17.33;;;3.50;1.00;;;;;;5132714;27;20052;-88
2021/01/18 06:22:52;;;;;;;26.33;17.13;;;3.50;1.00;;;;;;5132676;27;20028;-89
2021/01/18 06:25:18;;;;;;;27.15;15.90;;;3.00;1.00;;;;;;5132705;27;20480;-88
2021/01/18 06:27:44;;;;;;;29.50;15.50;;;3.00;1.00;;;;;;5133929;27;20022;-88
2021/01/18 06:30:26;;;;;;;28.80;16.27;;;3.40;1.00;;;;;;5131470;27;20031;-89
2021/01/18 06:32:54;;;;;;;28.45;16.17;;;3.20;1.00;;;;;;5132415;28;20023;-89
2021/01/18 06:35:21;;;;;;;32.25;16.30;;;3.20;1.00;;;;;;5132369;27;20032;-87
2021/01/18 06:37:54;;;;;;;28.27;16.42;;;3.60;1.00;;;;;;5119661;27;20020;-89
2021/01/18 06:40:29;;;;;;;35.85;17.63;;;3.80;1.00;;;;;;5118743;27;20047;-89
2021/01/18 06:42:56;;;;;;;35.13;17.67;;;3.80;1.00;;;;;;5116743;28;20027;-89
2021/01/18 06:45:28;;;;;;;32.15;17.33;;;3.40;1.00;;;;;;5129607;27;20049;-88
2021/01/18 06:47:56;;;;;;;33.60;17.55;;;3.90;1.00;;;;;;5139451;27;20023;-89
2021/01/18 06:50:27;;;;;;;32.45;17.65;;;3.90;1.00;;;;;;5138964;27;20027;-89
2021/01/18 06:52:55;;;;;;;32.35;18.40;;;3.90;1.00;;;;;;5139067;27;20059;-89
2021/01/18 06:55:38;;;;;;;36.03;17.05;;;3.30;1.00;;;;;;5139114;27;20030;-89
2021/01/18 06:58:54;;;;;;;34.55;17.25;;;3.60;1.00;;;;;;5139190;27;20110;-89
2021/01/18 07:01:39;;;;;;;52.88;16.88;;;3.50;1.00;;;;;;5125538;27;20062;-89
2021/01/18 07:04:14;;;;;;;40.60;17.02;;;3.60;1.00;;;;;;5138807;27;20023;-88
2021/01/18 07:06:41;;;;;;;35.70;17.42;;;3.60;1.00;;;;;;5138742;27;20027;-88
2021/01/18 07:09:12;;;;;;;42.90;19.08;;;3.80;1.00;;;;;;5137116;27;20027;-89
2021/01/18 07:11:39;;;;;;;48.88;17.92;;;3.70;1.00;;;;;;5138780;27;20030;-89
2021/01/18 07:14:10;;;;;;;56.30;17.05;;;3.90;1.00;;;;;;5137322;27;20023;-89
2021/01/18 07:16:36;;;;;;;50.47;17.88;;;3.60;1.00;;;;;;5097816;28;20027;-89
2021/01/18 07:19:04;;;;;;;51.33;17.25;;;3.60;1.00;;;;;;5097568;28;20028;-88
2021/01/18 07:21:46;;;;;;;44.20;19.23;;;3.60;1.00;;;;;;5099082;28;20039;-88
2021/01/18 07:24:15;;;;;;;48.15;20.75;;;3.60;1.00;;;;;;5099155;28;20034;-88
2021/01/18 07:26:51;;;;;;;40.30;21.23;;;3.50;1.00;;;;;;5097601;28;20028;-89
2021/01/18 07:29:19;;;;;;;45.90;20.15;;;3.90;1.00;;;;;;5103674;27;20024;-89
2021/01/18 07:31:48;;;;;;;47.80;18.67;;;3.80;1.00;;;;;;5099234;28;20102;-88
2021/01/18 07:34:15;;;;;;;37.15;18.45;;;4.10;1.00;;;;;;5098712;28;20099;-88
2021/01/18 07:36:42;;;;;;;44.13;18.63;;;3.60;1.00;;;;;;5097966;28;20039;-88
2021/01/18 07:39:27;;;;;;;38.90;19.23;;;3.50;1.00;;;;;;5097408;28;20075;-88
2021/01/18 07:41:53;;;;;;;43.55;20.55;;;3.50;1.00;;;;;;5097651;28;20031;-89
2021/01/18 07:44:37;;;;;;;57.78;20.60;;;4.00;1.00;;;;;;5108760;27;20046;-87
2021/01/18 07:47:06;;;;;;;41.33;19.63;;;3.70;1.00;;;;;;5115959;27;20411;-89
2021/01/18 07:49:34;;;;;;;36.08;17.63;;;3.60;1.00;;;;;;5114775;28;20034;-88
2021/01/18 07:52:13;;;;;;;41.67;16.40;;;4.00;1.00;;;;;;5114549;28;20081;-88
2021/01/18 07:54:38;;;;;;;34.13;17.58;;;4.10;1.00;;;;;;5114702;28;20115;-88
2021/01/18 07:57:28;;;;;;;37.63;18.17;;;4.40;1.00;;;;;;5114434;28;20114;-88
2021/01/18 08:00:16;;;;;;;35.42;16.10;;;3.90;1.00;;;;;;5124346;27;20023;-88
2021/01/18 08:02:42;;;;;;;34.92;17.08;;;4.00;1.00;;;;;;5134959;27;20027;-89
2021/01/18 08:05:33;;;;;;;36.00;16.40;;;4.30;1.00;;;;;;5135142;27;20476;-88
2021/01/18 08:08:07;;;;;;;43.22;15.48;;;3.90;1.00;;;;;;5135158;27;20027;-88
2021/01/18 08:10:55;;;;;;;36.05;15.52;;;3.80;1.00;;;;;;5135146;27;20066;-88
2021/01/18 08:13:32;;;;;;;42.67;16.15;;;3.90;1.00;;;;;;5134682;27;20061;-88
2021/01/18 08:16:19;;;;;;;52.55;16.35;;;3.80;1.00;;;;;;5117966;27;20030;-88
2021/01/18 08:19:14;;;;;;;50.15;14.80;;;3.80;1.00;;;;;;5114065;27;20023;-89
2021/01/18 08:21:43;;;;;;;52.22;15.45;;;4.00;1.00;;;;;;5114161;27;20032;-88
2021/01/18 08:24:12;;;;;;;51.97;16.55;;;4.20;1.00;;;;;;5115292;28;20024;-88
2021/01/18 08:27:00;;;;;;;34.92;14.65;;;4.20;1.00;;;;;;5115128;28;20050;-88
2021/01/18 08:29:51;;;;;;;40.00;14.18;;;4.00;1.00;;;;;;5120936;27;20026;-87
2021/01/18 08:32:25;;;;;;;42.67;14.05;;;3.90;1.00;;;;;;5135404;27;20023;-88
2021/01/18 08:34:56;;;;;;;29.60;14.23;;;4.00;1.00;;;;;;5134985;27;20441;-88
2021/01/18 08:37:23;;;;;;;32.75;13.43;;;3.90;1.00;;;;;;5135913;27;20454;-89
2021/01/18 08:39:53;;;;;;;36.50;13.20;;;4.40;1.00;;;;;;5134477;27;20093;-88
2021/01/18 08:42:40;;;;;;;35.75;11.80;;;4.10;1.00;;;;;;5135534;27;20023;-88
2021/01/18 08:45:09;;;;;;;27.08;12.60;;;4.20;1.00;;;;;;5127813;27;20457;-88
2021/01/18 08:47:41;;;;;;;26.92;13.13;;;4.10;1.00;;;;;;5133987;27;20029;-89
2021/01/18 08:50:27;;;;;;;28.13;12.82;;;4.00;1.00;;;;;;5134266;27;20027;-87
2021/01/18 08:53:39;;;;;;;32.45;13.20;;;4.10;1.00;;;;;;5133811;27;20030;-87
2021/01/18 08:56:06;;;;;;;28.00;11.93;;;4.20;1.00;;;;;;5133635;27;20031;-88
2021/01/18 08:58:43;;;;;;;43.50;12.65;;;4.20;1.00;;;;;;5131352;27;20027;-87
2021/01/18 09:01:14;;;;;;;23.30;13.15;;;4.10;1.00;;;;;;5134874;27;20082;-87
2021/01/18 09:03:40;;;;;;;25.17;12.63;;;4.30;1.00;;;;;;5133780;27;20106;-87
2021/01/18 09:06:06;;;;;;;43.85;13.63;;;4.80;1.00;;;;;;5133545;27;20118;-87
2021/01/18 09:08:32;;;;;;;24.08;13.05;;;4.30;1.00;;;;;;5133481;27;20038;-86
2021/01/18 09:33:52;;;;;;;30.83;15.10;;;4.20;1.00;;;;;;5131445;27;20440;-81
2021/01/18 09:36:20;;;;;;;29.25;14.35;;;4.50;1.00;;;;;;5131475;27;20441;-83
2021/01/18 09:38:47;;;;;;;31.25;13.68;;;4.20;1.00;;;;;;5129752;28;20031;-83
2021/01/18 09:41:14;;;;;;;30.30;14.63;;;4.30;1.00;;;;;;5115494;27;20477;-84
2021/01/18 09:43:43;;;;;;;30.65;14.95;;;4.50;1.00;;;;;;5113074;27;20020;-82
2021/01/18 09:46:10;;;;;;;26.15;14.00;;;4.50;1.00;;;;;;5110361;28;20032;-81
2021/01/18 09:48:37;;;;;;;22.52;13.45;;;4.30;1.00;;;;;;5110558;28;20028;-87
2021/01/18 09:51:12;;;;;;;32.50;13.73;;;4.50;1.00;;;;;;5108935;28;20028;-84
2021/01/18 09:53:38;;;;;;;31.45;14.30;;;4.20;1.00;;;;;;5110182;28;20492;-83
2021/01/18 09:56:07;;;;;;;25.67;15.13;;;4.10;1.00;;;;;;5123183;28;20041;-84
2021/01/18 09:58:37;;;;;;;20.23;12.93;;;4.30;1.00;;;;;;5130445;27;20047;-84
2021/01/18 10:01:11;;;;;;;27.08;13.85;;;4.30;1.00;;;;;;5129357;27;20603;-82
2021/01/18 10:03:39;;;;;;;25.55;15.00;;;4.50;1.00;;;;;;5130590;27;20015;-82
2021/01/18 10:06:04;;;;;;;25.50;14.70;;;4.60;1.00;;;;;;5129336;27;20024;-82
2021/01/18 10:08:32;;;;;;;27.88;13.80;;;4.70;1.00;;;;;;5129531;27;20011;-82
2021/01/18 10:10:59;;;;;;;31.17;14.73;;;4.60;1.00;;;;;;5130579;27;20047;-81
2021/01/18 10:13:25;;;;;;;29.13;14.40;;;4.70;1.00;;;;;;5130384;27;20065;-80
2021/01/18 10:15:52;;;;;;;27.10;14.57;;;4.30;1.00;;;;;;5130888;27;20109;-81
2021/01/18 10:18:42;;;;;;;27.42;14.95;;;4.30;1.00;;;;;;5130349;27;20019;-81
2021/01/18 10:21:10;;;;;;;27.33;15.80;;;4.40;1.00;;;;;;5130246;27;20529;-81
2021/01/18 10:23:44;;;;;;;30.70;16.02;;;4.60;1.00;;;;;;5123048;27;20016;-80
2021/01/18 10:26:24;;;;;;;30.38;16.90;;;4.50;1.00;;;;;;5109403;28;20500;-81
2021/01/18 10:28:55;;;;;;;29.65;15.70;;;4.50;1.00;;;;;;5108524;28;20028;-81
2021/01/18 10:31:28;;;;;;;27.40;15.50;;;4.60;1.00;;;;;;5109616;28;20482;-82
2021/01/18 10:34:13;;;;;;;31.60;16.45;;;4.60;1.00;;;;;;5101175;28;20045;-81
2021/01/18 10:36:41;;;;;;;24.65;14.65;;;4.60;1.00;;;;;;5096217;28;20047;-81
2021/01/18 10:39:07;;;;;;;34.55;18.13;;;4.50;1.00;;;;;;5093889;28;20024;-81
2021/01/18 10:41:34;;;;;;;36.25;17.27;;;4.40;1.00;;;;;;5094538;28;20024;-83
2021/01/18 10:44:04;;;;;;;34.47;17.20;;;4.30;1.00;;;;;;5094382;28;20055;-82
2021/01/18 10:46:30;;;;;;;27.42;15.88;;;4.70;1.00;;;;;;5095779;28;20051;-82
2021/01/18 10:48:57;;;;;;;36.47;17.00;;;4.50;1.00;;;;;;5079407;28;20052;-82
2021/01/18 10:51:29;;;;;;;34.30;17.38;;;4.30;1.00;;;;;;5073522;28;20159;-82
2021/01/18 10:54:00;;;;;;;29.38;16.83;;;4.40;1.00;;;;;;5075767;28;20033;-81
2021/01/18 10:56:32;;;;;;;34.95;18.63;;;4.60;1.00;;;;;;5075506;28;20103;-82
2021/01/18 10:58:59;;;;;;;34.85;18.23;;;4.70;1.00;;;;;;5076072;28;20029;-81
2021/01/18 11:01:25;;;;;;;30.13;14.23;;;4.80;1.00;;;;;;5074891;28;20028;-81
2021/01/18 11:03:51;;;;;;;22.25;12.45;;;4.70;1.00;;;;;;5074844;28;20033;-82
2021/01/18 11:06:19;;;;;;;21.67;12.15;;;4.90;1.00;;;;;;5075386;28;20024;-81
2021/01/18 11:08:50;;;;;;;20.25;10.98;;;4.80;1.00;;;;;;5095083;28;20035;-81
2021/01/18 11:11:23;;;;;;;18.15;10.50;;;5.00;1.00;;;;;;5093812;28;20066;-82
2021/01/18 11:14:01;;;;;;;21.90;11.57;;;5.00;1.00;;;;;;5095392;28;20504;-82
2021/01/18 11:16:26;;;;;;;16.67;10.07;;;4.90;1.00;;;;;;5095384;28;20480;-81
2021/01/18 11:19:01;;;;;;;18.58;13.15;;;5.10;1.00;;;;;;5095156;28;20055;-81
2021/01/18 11:21:27;;;;;;;13.30;8.95;;;5.00;1.00;;;;;;5093084;28;20059;-81
2021/01/18 11:23:54;;;;;;;14.25;9.43;;;5.30;1.00;;;;;;5095038;28;20068;-81
2021/01/18 11:26:19;;;;;;;15.90;9.00;;;5.10;1.00;;;;;;5094349;28;20026;-81
2021/01/18 11:28:45;;;;;;;12.60;8.23;;;5.00;1.00;;;;;;5092685;28;20181;-81
2021/01/18 11:31:12;;;;;;;12.70;8.10;;;4.90;1.00;;;;;;5093805;28;20023;-81
2021/01/18 11:33:38;;;;;;;11.52;7.68;;;4.90;1.00;;;;;;5092988;28;20076;-81
2021/01/18 11:36:04;;;;;;;12.32;8.07;;;5.00;1.00;;;;;;5094311;28;20093;-81
2021/01/18 11:38:29;;;;;;;16.08;9.82;;;5.10;1.00;;;;;;5094139;28;20032;-81
2021/01/18 11:40:55;;;;;;;12.82;8.27;;;5.30;1.00;;;;;;5094131;28;20032;-81
2021/01/18 11:43:21;;;;;;;15.88;9.70;;;5.40;1.00;;;;;;5093986;28;20035;-81
2021/01/18 11:45:46;;;;;;;13.77;9.20;;;5.40;1.00;;;;;;5093082;28;20504;-82
2021/01/18 11:48:12;;;;;;;13.80;8.60;;;5.20;1.00;;;;;;5093873;28;20024;-81
2021/01/18 11:50:37;;;;;;;11.30;8.05;;;5.40;1.00;;;;;;5091577;28;20016;-82
2021/01/18 11:53:03;;;;;;;12.25;8.05;;;5.40;1.00;;;;;;5094688;28;20035;-81
2021/01/18 11:55:29;;;;;;;15.90;9.02;;;5.50;1.00;;;;;;5094743;28;20016;-80
2021/01/18 11:57:55;;;;;;;14.52;8.77;;;5.60;1.00;;;;;;5094717;28;20476;-81
2021/01/18 12:00:22;;;;;;;13.30;8.27;;;5.80;1.00;;;;;;5094484;28;20431;-81
2021/01/18 12:02:52;;;;;;;13.95;8.75;;;5.70;1.00;;;;;;5092874;28;20122;-81
2021/01/18 12:05:18;;;;;;;15.73;9.30;;;5.80;1.00;;;;;;5092348;28;20027;-82
2021/01/18 12:07:46;;;;;;;14.02;8.00;;;5.90;1.00;;;;;;5093651;28;20013;-82
2021/01/18 12:10:13;;;;;;;15.82;9.75;;;5.80;1.00;;;;;;5093584;28;20016;-83
2021/01/18 12:12:39;;;;;;;15.30;9.70;;;5.80;1.00;;;;;;5092858;28;20550;-83
2021/01/18 12:15:05;;;;;;;14.70;8.77;;;5.80;1.00;;;;;;5092912;28;20107;-83
2021/01/18 12:17:41;;;;;;;12.65;8.02;;;5.90;1.00;;;;;;5093107;28;20024;-82
2021/01/18 12:20:12;;;;;;;13.60;7.82;;;5.80;1.00;;;;;;5093256;28;20051;-83
2021/01/18 12:22:37;;;;;;;14.10;7.60;;;5.60;1.00;;;;;;5093307;28;20028;-83
2021/01/18 12:25:05;;;;;;;12.18;7.55;;;5.70;1.00;;;;;;5093275;28;20028;-82
2021/01/18 12:27:30;;;;;;;13.35;6.95;;;5.70;1.00;;;;;;5093028;28;20377;-82
2021/01/18 12:29:56;;;;;;;14.43;7.93;;;6.00;1.00;;;;;;5093417;28;20027;-82
2021/01/18 12:32:22;;;;;;;13.25;8.20;;;6.00;1.00;;;;;;5093570;28;20078;-82
2021/01/18 12:34:48;;;;;;;13.80;7.68;;;6.00;1.00;;;;;;5084792;28;20029;-83
2021/01/18 12:37:13;;;;;;;12.63;7.63;;;5.80;1.00;;;;;;5081901;28;20024;-83
2021/01/18 12:39:39;;;;;;;13.48;7.53;;;5.80;1.00;;;;;;5084724;28;20016;-82
2021/01/18 12:42:06;;;;;;;13.18;7.78;;;5.70;1.00;;;;;;5091481;28;20031;-82
2021/01/18 12:44:32;;;;;;;12.88;7.90;;;5.70;1.00;;;;;;5093754;28;20070;-85
2021/01/18 12:46:59;;;;;;;10.20;7.20;;;5.80;1.00;;;;;;5093422;28;20145;-84
2021/01/18 12:49:25;;;;;;;12.20;6.63;;;5.70;1.00;;;;;;5092509;28;20107;-82
2021/01/18 12:51:51;;;;;;;9.77;6.93;;;5.70;1.00;;;;;;5093190;28;20591;-82
2021/01/18 12:54:17;;;;;;;11.43;8.10;;;5.90;1.00;;;;;;5093540;28;20646;-82
2021/01/18 12:56:43;;;;;;;13.45;8.30;;;6.10;1.00;;;;;;5087413;28;20038;-83
2021/01/18 12:59:08;;;;;;;13.63;8.52;;;6.00;1.00;;;;;;5092098;28;20471;-83
2021/01/18 13:01:35;;;;;;;13.35;8.77;;;6.20;1.00;;;;;;5092673;28;20032;-83
2021/01/18 13:04:05;;;;;;;10.52;7.68;;;6.00;1.00;;;;;;5092240;28;20016;-82
2021/01/18 13:06:37;;;;;;;9.45;6.97;;;5.90;1.00;;;;;;5091967;28;20064;-82
2021/01/18 13:09:07;;;;;;;10.40;7.13;;;5.80;1.00;;;;;;5092824;28;20027;-82
2021/01/18 13:11:33;;;;;;;13.13;7.25;;;5.70;1.00;;;;;;5093323;28;20024;-81
2021/01/18 13:13:59;;;;;;;10.82;7.60;;;5.70;1.00;;;;;;5093466;28;20028;-82
2021/01/18 13:16:25;;;;;;;10.25;7.20;;;5.80;1.00;;;;;;5092716;28;20102;-81
2021/01/18 13:18:51;;;;;;;12.93;7.63;;;5.70;1.00;;;;;;5092199;28;20023;-81
2021/01/18 13:21:18;;;;;;;12.18;7.88;;;5.60;1.00;;;;;;5092055;28;20028;-82
2021/01/18 13:23:44;;;;;;;9.40;7.03;;;5.40;1.00;;;;;;5092391;28;20012;-81
2021/01/18 13:26:12;;;;;;;10.40;6.70;;;5.50;1.00;;;;;;5093012;28;20076;-82
2021/01/18 13:28:42;;;;;;;12.88;7.30;;;5.60;1.00;;;;;;5091856;28;20016;-81
2021/01/18 13:31:09;;;;;;;12.63;7.20;;;5.60;1.00;;;;;;5093134;28;20473;-81
2021/01/18 13:33:35;;;;;;;11.60;7.82;;;5.70;1.00;;;;;;5091640;28;20447;-82